Morgan Ray — WDF6085 — position and weather

sailwx.info

Track history (hours):
 
Tides and Currents Weather Stations Pressure Air Temp Water Temp Dewpoint Dewpoint Depression Visibility Wind Speed Wind Dir Waves Ship Positions

Morgan Ray

Owner: Daigle Towing Service LLC., Belle Chasse, LA. More information available from US FCC via Universal Licensing System and Coast Guard Vessel Documentation Center.

Last reported at 2016-Nov-24 15:07 UTC. Time now 2016-Dec-04 12:21 UTC.
Position N 29°49' W 092°03'.
Warning: this ship's position is 9 days out of date.

Length 20 m; draft 2 m.

Type: Tug. MMSI: 367470470.

Date/timePositionNaut miles runAvg speedWind from/ knotsBaromVisibWave heightAir tempDewpointWater temp
2016-Nov-24 15:07N 29°49' W 092°03'3 5.2
2016-Nov-24 14:33N 29°48' W 092°06'5 5.0
2016-Nov-24 13:33N 29°47' W 092°12'3 2.8
2016-Nov-24 12:33N 29°48' W 092°15'0 0.0
2016-Nov-24 11:33N 29°48' W 092°15'0 0.0
2016-Nov-24 10:33N 29°48' W 092°15'0 0.0
2016-Nov-24 09:33N 29°48' W 092°15'2 1.6
2016-Nov-24 08:33N 29°49' W 092°16'4 4.4
2016-Nov-24 07:33N 29°51' W 092°21'42 4.7
2016-Nov-23 22:32N 29°56' W 093°09'6 5.0
2016-Nov-23 21:24N 30°00' W 093°14'4 4.5
2016-Nov-23 20:33N 30°03' W 093°16'2 2.3
2016-Nov-23 19:33N 30°05' W 093°18'2 2.0
2016-Nov-23 18:33N 30°05' W 093°20'0 0.3
2016-Nov-23 17:33N 30°05' W 093°20'3 2.9
2016-Nov-23 16:33N 30°04' W 093°23'4 3.8
2016-Nov-23 15:33N 30°04' W 093°27'2 0.1
2016-Nov-22 10:16N 30°04' W 093°29'6 8.3
2016-Nov-22 09:33N 30°04' W 093°22'5 4.8
2016-Nov-22 08:33N 30°05' W 093°17'3 2.6
2016-Nov-22 07:33N 30°02' W 093°16'57 7.2
2016-Nov-21 23:33N 29°47' W 092°12'  
Track history (hours):
 
Tides and Currents Weather Stations Pressure Air Temp Water Temp Dewpoint Dewpoint Depression Visibility Wind Speed Wind Dir Waves Ship Positions

Morgan Ray

Owner: Daigle Towing Service LLC., Belle Chasse, LA. More information available from US FCC via Universal Licensing System and Coast Guard Vessel Documentation Center.

Last reported at 2016-Nov-24 15:07 UTC. Time now 2016-Dec-04 12:21 UTC.
Position N 29°49' W 092°03'.
Warning: this ship's position is 9 days out of date.

Length 20 m; draft 2 m.

Type: Tug. MMSI: 367470470.

Date/timePositionNaut miles runAvg speedWind from/ knotsBaromVisibWave heightAir tempDewpointWater temp
2016-Nov-24 15:07N 29°49' W 092°03'3 5.2
2016-Nov-24 14:33N 29°48' W 092°06'5 5.0
2016-Nov-24 13:33N 29°47' W 092°12'3 2.8
2016-Nov-24 12:33N 29°48' W 092°15'0 0.0
2016-Nov-24 11:33N 29°48' W 092°15'0 0.0
2016-Nov-24 10:33N 29°48' W 092°15'0 0.0
2016-Nov-24 09:33N 29°48' W 092°15'2 1.6
2016-Nov-24 08:33N 29°49' W 092°16'4 4.4
2016-Nov-24 07:33N 29°51' W 092°21'42 4.7
2016-Nov-23 22:32N 29°56' W 093°09'6 5.0
2016-Nov-23 21:24N 30°00' W 093°14'4 4.5
2016-Nov-23 20:33N 30°03' W 093°16'2 2.3
2016-Nov-23 19:33N 30°05' W 093°18'2 2.0
2016-Nov-23 18:33N 30°05' W 093°20'0 0.3
2016-Nov-23 17:33N 30°05' W 093°20'3 2.9
2016-Nov-23 16:33N 30°04' W 093°23'4 3.8
2016-Nov-23 15:33N 30°04' W 093°27'2 0.1
2016-Nov-22 10:16N 30°04' W 093°29'6 8.3
2016-Nov-22 09:33N 30°04' W 093°22'5 4.8
2016-Nov-22 08:33N 30°05' W 093°17'3 2.6
2016-Nov-22 07:33N 30°02' W 093°16'57 7.2
2016-Nov-21 23:33N 29°47' W 092°12'  

Dump ship's entire track history